createdAt,value
2022-09-28T00:01:50.242Z,4.75
2022-09-28T00:04:55.647Z,3.42
2022-09-28T00:08:02.067Z,3.78
2022-09-28T00:11:12.846Z,3.50
2022-09-28T00:14:18.268Z,3.40
2022-09-28T00:17:24.263Z,3.55
2022-09-28T00:20:30.188Z,3.50
2022-09-28T00:23:58.584Z,3.50
2022-09-28T00:27:04.617Z,3.92
2022-09-28T00:30:10.694Z,4.03
2022-09-28T00:33:16.218Z,3.67
2022-09-28T00:36:21.987Z,3.33
2022-09-28T00:39:28.769Z,3.97
2022-09-28T00:42:34.608Z,3.65
2022-09-28T00:45:40.350Z,3.13
2022-09-28T00:49:03.559Z,3.17
2022-09-28T00:52:16.156Z,3.50
2022-09-28T00:55:29.603Z,4.07
2022-09-28T00:58:55.027Z,4.50
2022-09-28T01:02:03.220Z,3.88
2022-09-28T01:05:11.049Z,6.07
2022-09-28T01:08:18.156Z,4.38
2022-09-28T01:11:25.697Z,5.85
2022-09-28T01:14:31.935Z,4.80
2022-09-28T01:18:03.649Z,5.47
2022-09-28T01:21:24.396Z,5.35
2022-09-28T01:24:40.716Z,4.38
2022-09-28T01:27:57.983Z,4.15
2022-09-28T01:31:15.794Z,4.22
2022-09-28T01:34:30.336Z,4.05
2022-09-28T01:37:47.860Z,3.47
2022-09-28T01:40:55.685Z,3.42
2022-09-28T01:44:04.689Z,3.15
2022-09-28T01:47:14.397Z,2.92
2022-09-28T01:50:25.393Z,2.95
2022-09-28T01:53:43.700Z,2.55
2022-09-28T01:57:07.769Z,3.38
2022-09-28T02:00:15.686Z,2.58
2022-09-28T02:03:32.971Z,2.58
2022-09-28T02:06:53.450Z,2.30
2022-09-28T02:10:06.233Z,2.67
2022-09-28T02:13:19.063Z,2.95
2022-09-28T02:16:31.562Z,3.17
2022-09-28T02:19:39.739Z,2.30
2022-09-28T02:22:57.084Z,3.05
2022-09-28T02:26:08.529Z,2.55
2022-09-28T02:29:15.506Z,2.70
2022-09-28T02:32:22.915Z,2.70
2022-09-28T02:35:28.827Z,2.28
2022-09-28T02:38:38.618Z,3.03
2022-09-28T02:42:03.968Z,2.72
2022-09-28T02:45:21.702Z,3.03
2022-09-28T02:48:55.718Z,2.75
2022-09-28T02:52:39.729Z,3.60
2022-09-28T02:56:11.183Z,3.63
2022-09-28T02:59:19.597Z,3.50
2022-09-28T03:02:31.725Z,4.03
2022-09-28T03:06:02.284Z,3.35
2022-09-28T03:09:34.602Z,3.45
2022-09-28T03:12:41.962Z,4.20
2022-09-28T03:15:53.304Z,3.72
2022-09-28T03:18:59.646Z,4.07
2022-09-28T03:22:06.008Z,3.67
2022-09-28T03:25:12.156Z,3.88
2022-09-28T03:28:18.650Z,3.78
2022-09-28T03:31:24.192Z,3.13
2022-09-28T03:34:30.499Z,3.20
2022-09-28T03:37:36.962Z,3.28
2022-09-28T03:40:43.846Z,2.88
2022-09-28T03:43:49.871Z,2.80
2022-09-28T03:46:56.812Z,2.85
2022-09-28T03:50:02.724Z,2.45
2022-09-28T03:53:08.474Z,2.53
2022-09-28T03:56:16.325Z,2.35
2022-09-28T03:59:22.192Z,2.10
2022-09-28T04:02:28.029Z,2.47
2022-09-28T04:05:35.500Z,2.50
2022-09-28T04:08:41.661Z,2.40
2022-09-28T04:12:03.395Z,1.85
2022-09-28T04:15:11.747Z,2.33
2022-09-28T04:18:16.960Z,2.33
2022-09-28T04:21:42.712Z,1.98
2022-09-28T04:24:51.980Z,2.35
2022-09-28T04:28:16.107Z,1.95
2022-09-28T04:31:23.601Z,2.00
2022-09-28T04:34:33.123Z,1.88
2022-09-28T04:37:40.744Z,2.25
2022-09-28T04:40:50.136Z,2.13
2022-09-28T04:43:55.920Z,1.98
2022-09-28T04:47:05.280Z,1.73
2022-09-28T04:50:11.300Z,1.60
2022-09-28T04:53:37.374Z,1.52
2022-09-28T04:56:43.667Z,2.03
2022-09-28T04:59:49.372Z,2.10
2022-09-28T05:02:56.684Z,4.28
2022-09-28T05:06:21.895Z,2.92
2022-09-28T05:09:37.691Z,2.03
2022-09-28T05:12:44.099Z,2.10
2022-09-28T05:15:57.479Z,1.60
2022-09-28T05:19:11.060Z,1.85
2022-09-28T05:22:16.750Z,1.90
2022-09-28T05:25:25.300Z,1.70
2022-09-28T05:28:45.067Z,1.33
2022-09-28T05:32:13.333Z,1.13
2022-09-28T05:35:21.609Z,1.30
2022-09-28T05:38:29.172Z,1.40
2022-09-28T05:41:34.750Z,2.47
2022-09-28T05:44:40.805Z,1.20
2022-09-28T05:47:46.981Z,1.75
2022-09-28T05:50:58.905Z,1.58
2022-09-28T05:54:06.369Z,1.30
2022-09-28T05:57:15.492Z,1.20
2022-09-28T06:00:21.087Z,1.48
2022-09-28T06:03:32.115Z,1.50
2022-09-28T06:06:39.211Z,1.50
2022-09-28T06:09:44.793Z,1.58
2022-09-28T06:12:57.135Z,1.58
2022-09-28T06:16:05.194Z,2.10
2022-09-28T06:19:12.815Z,1.92
2022-09-28T06:22:37.174Z,2.42
2022-09-28T06:25:46.207Z,2.20
2022-09-28T06:28:51.732Z,2.85
2022-09-28T06:31:57.352Z,2.08
2022-09-28T06:35:04.004Z,1.98
2022-09-28T06:38:09.560Z,1.90
2022-09-28T06:41:16.501Z,2.28
2022-09-28T06:44:23.341Z,1.63
2022-09-28T06:47:28.841Z,1.77
2022-09-28T06:50:47.997Z,1.90
2022-09-28T06:54:18.508Z,1.60
2022-09-28T06:58:05.152Z,1.73
2022-09-28T07:01:12.575Z,1.30
2022-09-28T07:04:43.214Z,1.45
2022-09-28T07:08:29.020Z,1.10
2022-09-28T07:11:53.913Z,1.50
2022-09-28T07:18:13.085Z,1.63
2022-09-28T07:21:29.067Z,2.47
2022-09-28T07:24:38.708Z,2.90
2022-09-28T07:28:07.570Z,3.15
2022-09-28T07:31:33.994Z,2.95
2022-09-28T07:34:59.092Z,3.38
2022-09-28T07:38:24.063Z,2.85
2022-09-28T07:41:32.840Z,3.08
2022-09-28T07:44:41.549Z,2.53
2022-09-28T07:47:47.963Z,2.30
2022-09-28T07:51:12.673Z,2.67
2022-09-28T07:54:20.868Z,1.70
2022-09-28T07:57:47.290Z,1.63
2022-09-28T08:01:05.924Z,1.50
2022-09-28T08:04:12.930Z,1.38
2022-09-28T08:07:24.111Z,1.33
2022-09-28T08:10:38.663Z,1.35
2022-09-28T08:14:04.163Z,1.05
2022-09-28T08:17:28.480Z,1.50
2022-09-28T08:20:55.840Z,2.42
2022-09-28T08:24:01.864Z,1.00
2022-09-28T08:27:07.474Z,0.95
2022-09-28T08:30:13.920Z,1.20
2022-09-28T08:37:26.579Z,0.98
2022-09-28T08:40:58.967Z,1.40
2022-09-28T08:44:26.147Z,2.00
2022-09-28T08:48:15.431Z,1.30
2022-09-28T08:55:39.622Z,0.98
2022-09-28T08:58:54.826Z,0.93
2022-09-28T09:02:06.309Z,0.70
2022-09-28T09:05:17.559Z,0.80
2022-09-28T09:09:01.355Z,1.10
2022-09-28T09:12:13.865Z,0.93
2022-09-28T09:15:39.305Z,0.85
2022-09-28T09:19:11.369Z,1.23
2022-09-28T09:22:37.797Z,0.80
2022-09-28T09:25:50.634Z,1.33
2022-09-28T09:29:03.537Z,1.00
2022-09-28T09:32:56.642Z,0.93
2022-09-28T09:36:34.810Z,0.90
2022-09-28T09:40:21.080Z,0.93
2022-09-28T09:44:12.169Z,0.85
2022-09-28T09:47:38.980Z,1.20
2022-09-28T09:51:00.931Z,1.88
2022-09-28T09:54:32.485Z,1.13
2022-09-28T09:58:03.483Z,1.40
2022-09-28T10:01:20.123Z,1.40
2022-09-28T10:04:49.544Z,4.23
2022-09-28T10:08:03.199Z,1.70
2022-09-28T10:11:14.201Z,1.85
2022-09-28T10:14:25.750Z,1.35
2022-09-28T10:17:39.643Z,1.30
2022-09-28T10:21:16.355Z,1.60
2022-09-28T10:24:51.959Z,1.88
2022-09-28T10:27:59.259Z,1.70
2022-09-28T10:31:42.375Z,1.23
2022-09-28T10:35:22.512Z,1.60
2022-09-28T10:38:37.085Z,1.38
2022-09-28T10:41:52.338Z,1.27
2022-09-28T10:45:16.225Z,2.40
2022-09-28T10:48:23.228Z,1.95
2022-09-28T10:51:45.689Z,1.73
2022-09-28T10:55:00.879Z,1.90
2022-09-28T10:58:26.092Z,1.88
2022-09-28T11:01:34.913Z,1.42
2022-09-28T11:04:50.497Z,1.75
2022-09-28T11:08:00.202Z,1.83
2022-09-28T11:11:20.400Z,1.73
2022-09-28T11:14:42.777Z,1.52
2022-09-28T11:18:21.001Z,1.77
2022-09-28T11:21:40.336Z,2.22
2022-09-28T11:24:46.144Z,2.08
2022-09-28T11:27:51.195Z,1.90
2022-09-28T11:30:57.758Z,1.80
2022-09-28T11:34:31.055Z,1.60
2022-09-28T11:38:22.846Z,1.63
2022-09-28T11:42:03.967Z,1.67
2022-09-28T11:45:32.729Z,2.65
2022-09-28T11:48:58.166Z,1.77
2022-09-28T11:52:12.692Z,1.95
2022-09-28T11:55:57.603Z,1.90
2022-09-28T11:59:12.273Z,1.33
2022-09-28T12:02:34.137Z,1.80
2022-09-28T12:05:52.010Z,1.83
2022-09-28T12:09:07.201Z,1.60
2022-09-28T12:12:33.720Z,1.70
2022-09-28T12:16:27.302Z,2.30
2022-09-28T12:19:34.577Z,1.67
2022-09-28T12:22:46.324Z,1.77
2022-09-28T12:26:05.325Z,1.63
2022-09-28T12:29:42.494Z,1.98
2022-09-28T12:33:04.760Z,1.50
2022-09-28T12:36:17.864Z,1.50
2022-09-28T12:39:56.401Z,1.67
2022-09-28T12:43:29.225Z,1.60
2022-09-28T12:47:10.196Z,1.90
2022-09-28T12:53:55.098Z,1.45
2022-09-28T12:57:31.599Z,1.42
2022-09-28T13:01:11.059Z,1.77
2022-09-28T13:04:40.310Z,1.48
2022-09-28T13:07:57.913Z,2.90
2022-09-28T13:11:22.901Z,1.60
2022-09-28T13:14:38.314Z,1.30
2022-09-28T13:17:52.577Z,1.65
2022-09-28T13:21:08.845Z,2.67
2022-09-28T13:24:32.630Z,1.98
2022-09-28T13:27:46.397Z,1.48
2022-09-28T13:30:54.381Z,2.35
2022-09-28T13:34:03.573Z,1.40
2022-09-28T13:37:17.099Z,2.10
2022-09-28T13:41:00.769Z,1.95
2022-09-28T13:44:20.461Z,2.20
2022-09-28T13:47:55.675Z,1.77
2022-09-28T13:51:25.210Z,1.73
2022-09-28T13:55:03.233Z,1.80
2022-09-28T13:58:24.861Z,2.22
2022-09-28T14:01:40.635Z,1.40
2022-09-28T14:05:01.265Z,2.60
2022-09-28T14:08:09.388Z,1.93
2022-09-28T14:11:35.098Z,1.67
2022-09-28T14:14:52.377Z,1.73
2022-09-28T14:18:16.640Z,1.90
2022-09-28T14:21:21.837Z,1.48
2022-09-28T14:24:51.251Z,1.75
2022-09-28T14:28:01.352Z,1.58
2022-09-28T14:31:24.829Z,1.65
2022-09-28T14:34:39.111Z,1.67
2022-09-28T14:38:07.746Z,1.58
2022-09-28T14:41:31.814Z,1.75
2022-09-28T14:45:07.106Z,2.88
2022-09-28T14:48:19.552Z,1.42
2022-09-28T14:51:24.977Z,1.40
2022-09-28T14:54:56.811Z,1.48
2022-09-28T14:58:04.986Z,1.50
2022-09-28T15:01:20.736Z,2.22
2022-09-28T15:04:29.756Z,1.65
2022-09-28T15:07:49.785Z,2.08
2022-09-28T15:10:58.765Z,1.70
2022-09-28T15:14:08.669Z,1.50
2022-09-28T15:17:22.338Z,1.92
2022-09-28T15:20:32.676Z,1.90
2022-09-28T15:23:40.941Z,1.60
2022-09-28T15:26:48.546Z,2.25
2022-09-28T15:30:23.415Z,1.40
2022-09-28T15:33:50.502Z,1.90
2022-09-28T15:36:56.873Z,2.00
2022-09-28T15:40:03.404Z,1.77
2022-09-28T15:43:27.674Z,1.73
2022-09-28T15:46:42.129Z,1.70
2022-09-28T15:49:59.959Z,1.60
2022-09-28T15:53:06.191Z,1.33
2022-09-28T15:56:13.300Z,2.00
2022-09-28T15:59:31.193Z,2.30
2022-09-28T16:02:36.658Z,2.00
2022-09-28T16:05:47.230Z,1.60
2022-09-28T16:08:53.017Z,1.53
2022-09-28T16:11:59.622Z,2.00
2022-09-28T16:15:28.340Z,1.77
2022-09-28T16:18:40.932Z,3.10
2022-09-28T16:21:48.703Z,1.40
2022-09-28T16:24:57.672Z,2.10
2022-09-28T16:28:05.182Z,2.00
2022-09-28T16:31:13.869Z,2.15
2022-09-28T16:34:24.339Z,2.25
2022-09-28T16:37:32.496Z,1.90
2022-09-28T16:40:49.778Z,2.53
2022-09-28T16:43:59.987Z,2.20
2022-09-28T16:47:06.874Z,1.95
2022-09-28T16:50:15.586Z,1.88
2022-09-28T16:53:39.844Z,1.88
2022-09-28T16:56:45.099Z,2.05
2022-09-28T16:59:50.500Z,2.10
2022-09-28T17:02:56.431Z,2.20
2022-09-28T17:06:08.811Z,2.30
2022-09-28T17:09:14.105Z,2.60
2022-09-28T17:12:25.065Z,2.63
2022-09-28T17:15:30.405Z,3.00
2022-09-28T17:18:39.529Z,2.28
2022-09-28T17:21:45.777Z,2.10
2022-09-28T17:24:51.121Z,2.78
2022-09-28T17:27:58.847Z,2.30
2022-09-28T17:31:04.792Z,2.40
2022-09-28T17:34:13.053Z,2.38
2022-09-28T17:37:18.835Z,2.25
2022-09-28T17:40:28.635Z,2.45
2022-09-28T17:43:35.229Z,2.57
2022-09-28T17:46:49.146Z,2.20
2022-09-28T17:49:54.928Z,2.60
2022-09-28T17:53:06.592Z,2.70
2022-09-28T17:56:14.436Z,2.88
2022-09-28T17:59:21.038Z,2.78
2022-09-28T18:02:26.648Z,2.90
2022-09-28T18:05:34.950Z,2.72
2022-09-28T18:08:46.052Z,2.55
2022-09-28T18:12:04.308Z,2.65
2022-09-28T18:15:16.103Z,2.15
2022-09-28T18:18:30.280Z,2.63
2022-09-28T18:21:41.484Z,2.45
2022-09-28T18:24:52.605Z,3.17
2022-09-28T18:28:08.134Z,2.70
2022-09-28T18:31:23.596Z,2.70
2022-09-28T18:35:22.937Z,3.47
2022-09-28T18:43:20.864Z,2.97
2022-09-28T18:46:53.273Z,2.58
2022-09-28T18:50:17.899Z,2.97
2022-09-28T18:53:36.554Z,2.75
2022-09-28T18:56:50.056Z,2.72
2022-09-28T19:10:13.026Z,2.33
2022-09-28T19:13:59.886Z,2.38
2022-09-28T19:17:28.969Z,2.47
2022-09-28T19:35:52.392Z,2.50
2022-09-28T19:39:40.549Z,3.00
2022-09-28T19:43:33.767Z,2.20
2022-09-28T19:47:27.743Z,2.53
2022-09-28T19:51:43.744Z,3.10
2022-09-28T19:55:16.544Z,2.92
2022-09-28T19:58:54.518Z,3.53
2022-09-28T20:02:37.596Z,3.10
2022-09-28T20:06:00.315Z,3.47
2022-09-28T20:09:18.220Z,2.85
2022-09-28T20:12:34.821Z,2.83
2022-09-28T20:15:48.963Z,2.70
2022-09-28T20:19:08.782Z,2.88
2022-09-28T20:22:22.017Z,2.90
2022-09-28T20:25:38.691Z,2.40
2022-09-28T20:28:50.350Z,2.35
2022-09-28T20:32:04.422Z,2.65
2022-09-28T20:35:13.045Z,2.53
2022-09-28T20:38:22.082Z,3.40
2022-09-28T20:41:38.088Z,3.10
2022-09-28T20:44:47.402Z,3.00
2022-09-28T20:47:53.265Z,2.42
2022-09-28T20:51:01.114Z,3.25
2022-09-28T20:54:07.028Z,2.92
2022-09-28T20:57:18.788Z,2.90
2022-09-28T21:00:24.088Z,2.90
2022-09-28T21:03:30.185Z,3.38
2022-09-28T21:06:38.431Z,3.83
2022-09-28T21:09:43.999Z,2.95
2022-09-28T21:12:53.383Z,15.25
2022-09-28T21:16:02.484Z,23.67
2022-09-28T21:19:08.633Z,40.35
2022-09-28T21:22:13.950Z,45.25
2022-09-28T21:25:19.431Z,44.38
2022-09-28T21:28:25.023Z,18.90
2022-09-28T21:31:43.252Z,6.30
2022-09-28T21:34:48.468Z,5.57
2022-09-28T21:37:54.493Z,6.65
2022-09-28T21:41:00.775Z,5.35
2022-09-28T21:44:06.819Z,5.80
2022-09-28T21:47:12.222Z,4.90
2022-09-28T21:50:18.141Z,5.50
2022-09-28T21:53:25.785Z,8.43
2022-09-28T21:56:31.221Z,5.43
2022-09-28T21:59:37.348Z,4.80
2022-09-28T22:02:44.363Z,5.07
2022-09-28T22:05:52.777Z,6.10
2022-09-28T22:08:58.580Z,6.53
2022-09-28T22:12:04.450Z,6.10
2022-09-28T22:15:10.667Z,6.78
2022-09-28T22:18:16.583Z,6.15
2022-09-28T22:21:32.084Z,6.00
2022-09-28T22:24:38.087Z,6.30
2022-09-28T22:27:46.286Z,6.25
2022-09-28T22:30:51.947Z,7.80
2022-09-28T22:33:58.688Z,7.82
2022-09-28T22:37:04.930Z,6.03
2022-09-28T22:40:13.000Z,6.93
2022-09-28T22:43:19.507Z,7.00
2022-09-28T22:46:28.050Z,6.88
2022-09-28T22:49:33.708Z,6.80
2022-09-28T22:52:39.268Z,5.70
2022-09-28T22:55:45.630Z,6.13
2022-09-28T22:58:51.185Z,6.38
2022-09-28T23:01:57.079Z,5.95
2022-09-28T23:05:02.527Z,5.85
2022-09-28T23:08:08.107Z,6.45
2022-09-28T23:11:14.559Z,13.50
2022-09-28T23:14:20.178Z,12.23
2022-09-28T23:17:25.934Z,10.20
2022-09-28T23:20:31.728Z,8.63
2022-09-28T23:23:37.520Z,9.13
2022-09-28T23:26:43.187Z,8.20
2022-09-28T23:29:49.540Z,8.13
2022-09-28T23:32:55.056Z,7.72
2022-09-28T23:36:01.818Z,7.85
2022-09-28T23:39:07.305Z,7.63
2022-09-28T23:42:13.032Z,6.97
2022-09-28T23:45:18.593Z,8.75
2022-09-28T23:48:24.451Z,7.00
2022-09-28T23:51:30.112Z,6.55
2022-09-28T23:54:35.694Z,7.15
2022-09-28T23:57:44.074Z,7.65
